sensor_id;sensor_type;location;lat;lon;timestamp;P1;durP1;ratioP1;P2;durP2;ratioP2
2019;SDS011;1014;51.960;8.542;2023-03-23T00:01:54;19.73;;;18.43;;
2019;SDS011;1014;51.960;8.542;2023-03-23T00:04:21;18.40;;;17.50;;
2019;SDS011;1014;51.960;8.542;2023-03-23T00:06:53;19.20;;;18.20;;
2019;SDS011;1014;51.960;8.542;2023-03-23T00:09:20;19.93;;;18.83;;
2019;SDS011;1014;51.960;8.542;2023-03-23T00:11:49;19.73;;;18.50;;
2019;SDS011;1014;51.960;8.542;2023-03-23T00:14:17;20.30;;;19.00;;
2019;SDS011;1014;51.960;8.542;2023-03-23T00:16:47;19.50;;;18.40;;
2019;SDS011;1014;51.960;8.542;2023-03-23T00:19:15;20.80;;;19.50;;
2019;SDS011;1014;51.960;8.542;2023-03-23T00:21:44;20.27;;;19.07;;
2019;SDS011;1014;51.960;8.542;2023-03-23T00:24:13;20.60;;;19.20;;
2019;SDS011;1014;51.960;8.542;2023-03-23T00:26:42;19.80;;;18.70;;
2019;SDS011;1014;51.960;8.542;2023-03-23T00:29:11;20.57;;;19.47;;
2019;SDS011;1014;51.960;8.542;2023-03-23T00:31:39;19.13;;;18.10;;
2019;SDS011;1014;51.960;8.542;2023-03-23T00:34:06;20.47;;;19.30;;
2019;SDS011;1014;51.960;8.542;2023-03-23T00:36:37;20.93;;;19.73;;
2019;SDS011;1014;51.960;8.542;2023-03-23T00:39:09;21.07;;;19.80;;
2019;SDS011;1014;51.960;8.542;2023-03-23T00:41:38;20.80;;;19.70;;
2019;SDS011;1014;51.960;8.542;2023-03-23T00:44:05;20.63;;;19.30;;
2019;SDS011;1014;51.960;8.542;2023-03-23T00:46:33;21.07;;;19.87;;
2019;SDS011;1014;51.960;8.542;2023-03-23T00:49:10;20.50;;;19.37;;
2019;SDS011;1014;51.960;8.542;2023-03-23T00:51:37;20.97;;;19.60;;
2019;SDS011;1014;51.960;8.542;2023-03-23T00:54:04;21.30;;;20.20;;
2019;SDS011;1014;51.960;8.542;2023-03-23T00:56:31;22.00;;;20.70;;
2019;SDS011;1014;51.960;8.542;2023-03-23T00:59:00;21.10;;;20.10;;
2019;SDS011;1014;51.960;8.542;2023-03-23T01:01:27;19.30;;;18.40;;
2019;SDS011;1014;51.960;8.542;2023-03-23T01:03:54;21.60;;;20.43;;
2019;SDS011;1014;51.960;8.542;2023-03-23T01:06:26;20.87;;;19.77;;
2019;SDS011;1014;51.960;8.542;2023-03-23T01:08:53;20.47;;;19.40;;
2019;SDS011;1014;51.960;8.542;2023-03-23T01:11:21;21.47;;;20.17;;
2019;SDS011;1014;51.960;8.542;2023-03-23T01:13:49;21.10;;;19.70;;
2019;SDS011;1014;51.960;8.542;2023-03-23T01:16:18;19.40;;;18.40;;
2019;SDS011;1014;51.960;8.542;2023-03-23T01:18:45;20.70;;;19.43;;
2019;SDS011;1014;51.960;8.542;2023-03-23T01:21:13;20.60;;;19.40;;
2019;SDS011;1014;51.960;8.542;2023-03-23T01:23:40;20.77;;;19.57;;
2019;SDS011;1014;51.960;8.542;2023-03-23T01:26:09;18.40;;;17.50;;
2019;SDS011;1014;51.960;8.542;2023-03-23T01:28:36;20.00;;;19.00;;
2019;SDS011;1014;51.960;8.542;2023-03-23T01:31:04;20.10;;;18.90;;
2019;SDS011;1014;51.960;8.542;2023-03-23T01:33:33;20.63;;;19.00;;
2019;SDS011;1014;51.960;8.542;2023-03-23T01:36:02;19.17;;;18.23;;
2019;SDS011;1014;51.960;8.542;2023-03-23T01:38:29;20.60;;;19.50;;
2019;SDS011;1014;51.960;8.542;2023-03-23T01:40:57;19.27;;;17.90;;
2019;SDS011;1014;51.960;8.542;2023-03-23T01:43:24;19.90;;;18.80;;
2019;SDS011;1014;51.960;8.542;2023-03-23T01:45:51;19.60;;;18.50;;
2019;SDS011;1014;51.960;8.542;2023-03-23T01:48:20;20.67;;;19.17;;
2019;SDS011;1014;51.960;8.542;2023-03-23T01:50:52;20.17;;;19.03;;
2019;SDS011;1014;51.960;8.542;2023-03-23T01:53:20;20.13;;;19.00;;
2019;SDS011;1014;51.960;8.542;2023-03-23T01:55:49;19.97;;;18.97;;
2019;SDS011;1014;51.960;8.542;2023-03-23T01:58:18;18.73;;;17.63;;
2019;SDS011;1014;51.960;8.542;2023-03-23T02:00:46;18.97;;;17.97;;
2019;SDS011;1014;51.960;8.542;2023-03-23T02:03:14;19.50;;;18.60;;
2019;SDS011;1014;51.960;8.542;2023-03-23T02:05:42;19.80;;;18.80;;
2019;SDS011;1014;51.960;8.542;2023-03-23T02:08:11;19.47;;;18.47;;
2019;SDS011;1014;51.960;8.542;2023-03-23T02:10:39;20.00;;;18.90;;
2019;SDS011;1014;51.960;8.542;2023-03-23T02:13:06;19.87;;;18.30;;
2019;SDS011;1014;51.960;8.542;2023-03-23T02:15:37;20.03;;;18.80;;
2019;SDS011;1014;51.960;8.542;2023-03-23T02:18:07;18.10;;;17.20;;
2019;SDS011;1014;51.960;8.542;2023-03-23T02:20:40;19.67;;;18.57;;
2019;SDS011;1014;51.960;8.542;2023-03-23T02:23:17;19.40;;;18.30;;
2019;SDS011;1014;51.960;8.542;2023-03-23T02:25:51;18.20;;;17.30;;
2019;SDS011;1014;51.960;8.542;2023-03-23T02:28:24;18.00;;;17.10;;
2019;SDS011;1014;51.960;8.542;2023-03-23T02:30:59;18.43;;;17.53;;
2019;SDS011;1014;51.960;8.542;2023-03-23T02:33:37;19.67;;;18.47;;
2019;SDS011;1014;51.960;8.542;2023-03-23T02:36:09;19.53;;;18.50;;
2019;SDS011;1014;51.960;8.542;2023-03-23T02:38:38;20.10;;;19.10;;
2019;SDS011;1014;51.960;8.542;2023-03-23T02:41:07;20.13;;;19.13;;
2019;SDS011;1014;51.960;8.542;2023-03-23T02:43:36;21.43;;;20.17;;
2019;SDS011;1014;51.960;8.542;2023-03-23T02:46:05;20.80;;;19.70;;
2019;SDS011;1014;51.960;8.542;2023-03-23T02:48:33;21.50;;;20.40;;
2019;SDS011;1014;51.960;8.542;2023-03-23T02:51:04;20.90;;;19.70;;
2019;SDS011;1014;51.960;8.542;2023-03-23T02:53:31;22.93;;;21.63;;
2019;SDS011;1014;51.960;8.542;2023-03-23T02:56:00;21.93;;;20.83;;
2019;SDS011;1014;51.960;8.542;2023-03-23T02:58:29;21.83;;;20.77;;
2019;SDS011;1014;51.960;8.542;2023-03-23T03:00:56;21.93;;;20.90;;
2019;SDS011;1014;51.960;8.542;2023-03-23T03:03:25;22.70;;;21.50;;
2019;SDS011;1014;51.960;8.542;2023-03-23T03:05:54;20.90;;;19.80;;
2019;SDS011;1014;51.960;8.542;2023-03-23T03:08:28;20.83;;;19.70;;
2019;SDS011;1014;51.960;8.542;2023-03-23T03:10:58;20.70;;;19.50;;
2019;SDS011;1014;51.960;8.542;2023-03-23T03:13:32;20.70;;;19.50;;
2019;SDS011;1014;51.960;8.542;2023-03-23T03:16:04;20.97;;;19.80;;
2019;SDS011;1014;51.960;8.542;2023-03-23T03:18:34;19.90;;;18.90;;
2019;SDS011;1014;51.960;8.542;2023-03-23T03:21:05;19.80;;;18.80;;
2019;SDS011;1014;51.960;8.542;2023-03-23T03:23:34;19.20;;;18.30;;
2019;SDS011;1014;51.960;8.542;2023-03-23T03:26:03;18.97;;;18.10;;
2019;SDS011;1014;51.960;8.542;2023-03-23T03:28:30;18.87;;;17.97;;
2019;SDS011;1014;51.960;8.542;2023-03-23T03:30:59;20.37;;;19.37;;
2019;SDS011;1014;51.960;8.542;2023-03-23T03:33:28;19.80;;;18.90;;
2019;SDS011;1014;51.960;8.542;2023-03-23T03:35:56;21.10;;;19.90;;
2019;SDS011;1014;51.960;8.542;2023-03-23T03:38:24;19.90;;;18.90;;
2019;SDS011;1014;51.960;8.542;2023-03-23T03:40:55;20.10;;;19.10;;
2019;SDS011;1014;51.960;8.542;2023-03-23T03:43:23;20.13;;;19.03;;
2019;SDS011;1014;51.960;8.542;2023-03-23T03:45:50;20.90;;;19.90;;
2019;SDS011;1014;51.960;8.542;2023-03-23T03:48:17;20.97;;;19.97;;
2019;SDS011;1014;51.960;8.542;2023-03-23T03:50:44;20.73;;;19.73;;
2019;SDS011;1014;51.960;8.542;2023-03-23T03:53:11;20.57;;;19.57;;
2019;SDS011;1014;51.960;8.542;2023-03-23T03:55:38;20.50;;;19.43;;
2019;SDS011;1014;51.960;8.542;2023-03-23T03:58:11;20.40;;;19.27;;
2019;SDS011;1014;51.960;8.542;2023-03-23T04:00:38;19.80;;;18.80;;
2019;SDS011;1014;51.960;8.542;2023-03-23T04:03:07;19.40;;;18.50;;
2019;SDS011;1014;51.960;8.542;2023-03-23T04:05:34;20.27;;;19.30;;
2019;SDS011;1014;51.960;8.542;2023-03-23T04:08:02;20.40;;;19.30;;
2019;SDS011;1014;51.960;8.542;2023-03-23T04:10:30;20.83;;;19.73;;
2019;SDS011;1014;51.960;8.542;2023-03-23T04:12:58;19.23;;;18.30;;
2019;SDS011;1014;51.960;8.542;2023-03-23T04:15:26;19.80;;;18.90;;
2019;SDS011;1014;51.960;8.542;2023-03-23T04:17:53;19.83;;;18.73;;
2019;SDS011;1014;51.960;8.542;2023-03-23T04:20:21;20.13;;;19.23;;
2019;SDS011;1014;51.960;8.542;2023-03-23T04:22:50;20.00;;;18.90;;
2019;SDS011;1014;51.960;8.542;2023-03-23T04:25:20;20.10;;;19.10;;
2019;SDS011;1014;51.960;8.542;2023-03-23T04:27:47;20.17;;;19.17;;
2019;SDS011;1014;51.960;8.542;2023-03-23T04:30:18;20.53;;;19.43;;
2019;SDS011;1014;51.960;8.542;2023-03-23T04:32:47;19.13;;;18.23;;
2019;SDS011;1014;51.960;8.542;2023-03-23T04:35:17;19.47;;;18.57;;
2019;SDS011;1014;51.960;8.542;2023-03-23T04:37:45;19.60;;;18.67;;
2019;SDS011;1014;51.960;8.542;2023-03-23T04:40:13;19.63;;;18.73;;
2019;SDS011;1014;51.960;8.542;2023-03-23T04:42:40;19.23;;;18.33;;
2019;SDS011;1014;51.960;8.542;2023-03-23T04:45:10;19.87;;;18.87;;
2019;SDS011;1014;51.960;8.542;2023-03-23T04:47:38;18.70;;;17.73;;
2019;SDS011;1014;51.960;8.542;2023-03-23T04:50:08;18.63;;;17.73;;
2019;SDS011;1014;51.960;8.542;2023-03-23T04:52:37;19.70;;;18.80;;
2019;SDS011;1014;51.960;8.542;2023-03-23T04:55:05;18.73;;;17.63;;
2019;SDS011;1014;51.960;8.542;2023-03-23T04:57:33;20.80;;;19.80;;
2019;SDS011;1014;51.960;8.542;2023-03-23T05:00:00;18.93;;;18.03;;
2019;SDS011;1014;51.960;8.542;2023-03-23T05:02:33;19.03;;;18.03;;
2019;SDS011;1014;51.960;8.542;2023-03-23T05:05:00;19.07;;;18.10;;
2019;SDS011;1014;51.960;8.542;2023-03-23T05:07:29;18.20;;;17.30;;
2019;SDS011;1014;51.960;8.542;2023-03-23T05:09:56;19.03;;;18.07;;
2019;SDS011;1014;51.960;8.542;2023-03-23T05:12:23;19.00;;;18.10;;
2019;SDS011;1014;51.960;8.542;2023-03-23T05:14:50;19.20;;;18.20;;
2019;SDS011;1014;51.960;8.542;2023-03-23T05:17:17;19.10;;;18.10;;
2019;SDS011;1014;51.960;8.542;2023-03-23T05:19:44;18.20;;;17.40;;
2019;SDS011;1014;51.960;8.542;2023-03-23T05:22:12;18.73;;;17.83;;
2019;SDS011;1014;51.960;8.542;2023-03-23T05:24:41;18.33;;;17.43;;
2019;SDS011;1014;51.960;8.542;2023-03-23T05:27:08;18.63;;;17.73;;
2019;SDS011;1014;51.960;8.542;2023-03-23T05:29:36;18.93;;;18.03;;
2019;SDS011;1014;51.960;8.542;2023-03-23T05:32:05;18.70;;;17.70;;
2019;SDS011;1014;51.960;8.542;2023-03-23T05:34:33;19.53;;;18.60;;
2019;SDS011;1014;51.960;8.542;2023-03-23T05:37:03;19.20;;;18.20;;
2019;SDS011;1014;51.960;8.542;2023-03-23T05:39:30;19.60;;;18.60;;
2019;SDS011;1014;51.960;8.542;2023-03-23T05:42:01;19.03;;;18.13;;
2019;SDS011;1014;51.960;8.542;2023-03-23T05:44:29;18.73;;;17.83;;
2019;SDS011;1014;51.960;8.542;2023-03-23T05:46:56;19.03;;;18.13;;
2019;SDS011;1014;51.960;8.542;2023-03-23T05:49:23;18.83;;;17.83;;
2019;SDS011;1014;51.960;8.542;2023-03-23T05:51:51;19.70;;;18.60;;
2019;SDS011;1014;51.960;8.542;2023-03-23T05:54:19;19.47;;;18.57;;
2019;SDS011;1014;51.960;8.542;2023-03-23T05:56:46;18.43;;;17.63;;
2019;SDS011;1014;51.960;8.542;2023-03-23T05:59:15;18.50;;;17.60;;
2019;SDS011;1014;51.960;8.542;2023-03-23T06:01:42;18.77;;;17.87;;
2019;SDS011;1014;51.960;8.542;2023-03-23T06:04:09;17.90;;;17.07;;
2019;SDS011;1014;51.960;8.542;2023-03-23T06:06:36;19.70;;;18.67;;
2019;SDS011;1014;51.960;8.542;2023-03-23T06:09:04;18.60;;;17.70;;
2019;SDS011;1014;51.960;8.542;2023-03-23T06:11:31;18.77;;;17.87;;
2019;SDS011;1014;51.960;8.542;2023-03-23T06:13:59;18.63;;;17.73;;
2019;SDS011;1014;51.960;8.542;2023-03-23T06:16:29;18.30;;;17.40;;
2019;SDS011;1014;51.960;8.542;2023-03-23T06:18:56;19.27;;;18.10;;
2019;SDS011;1014;51.960;8.542;2023-03-23T06:21:25;18.27;;;17.47;;
2019;SDS011;1014;51.960;8.542;2023-03-23T06:23:53;19.13;;;18.20;;
2019;SDS011;1014;51.960;8.542;2023-03-23T06:26:20;18.63;;;17.73;;
2019;SDS011;1014;51.960;8.542;2023-03-23T06:28:50;19.70;;;18.80;;
2019;SDS011;1014;51.960;8.542;2023-03-23T06:31:17;19.40;;;18.50;;
2019;SDS011;1014;51.960;8.542;2023-03-23T06:33:46;19.87;;;18.83;;
2019;SDS011;1014;51.960;8.542;2023-03-23T06:36:13;19.10;;;18.10;;
2019;SDS011;1014;51.960;8.542;2023-03-23T06:38:41;18.87;;;17.97;;
2019;SDS011;1014;51.960;8.542;2023-03-23T06:41:08;17.80;;;17.00;;
2019;SDS011;1014;51.960;8.542;2023-03-23T06:43:36;19.73;;;18.83;;
2019;SDS011;1014;51.960;8.542;2023-03-23T06:46:04;18.07;;;17.27;;
2019;SDS011;1014;51.960;8.542;2023-03-23T06:48:31;19.23;;;18.13;;
2019;SDS011;1014;51.960;8.542;2023-03-23T06:51:00;19.70;;;18.60;;
2019;SDS011;1014;51.960;8.542;2023-03-23T06:53:27;19.20;;;18.20;;
2019;SDS011;1014;51.960;8.542;2023-03-23T06:55:54;19.23;;;18.33;;
2019;SDS011;1014;51.960;8.542;2023-03-23T06:58:21;19.60;;;18.70;;
2019;SDS011;1014;51.960;8.542;2023-03-23T07:00:52;18.57;;;17.77;;
2019;SDS011;1014;51.960;8.542;2023-03-23T07:03:20;19.77;;;18.83;;
2019;SDS011;1014;51.960;8.542;2023-03-23T07:05:47;19.07;;;18.07;;
2019;SDS011;1014;51.960;8.542;2023-03-23T07:08:16;19.30;;;18.30;;
2019;SDS011;1014;51.960;8.542;2023-03-23T07:10:43;17.70;;;16.80;;
2019;SDS011;1014;51.960;8.542;2023-03-23T07:13:10;19.80;;;18.60;;
2019;SDS011;1014;51.960;8.542;2023-03-23T07:15:38;18.97;;;18.00;;
2019;SDS011;1014;51.960;8.542;2023-03-23T07:18:05;19.17;;;18.10;;
2019;SDS011;1014;51.960;8.542;2023-03-23T07:20:32;19.13;;;18.00;;
2019;SDS011;1014;51.960;8.542;2023-03-23T07:22:59;19.77;;;18.87;;
2019;SDS011;1014;51.960;8.542;2023-03-23T07:25:28;18.93;;;18.00;;
2019;SDS011;1014;51.960;8.542;2023-03-23T07:27:55;18.90;;;18.00;;
2019;SDS011;1014;51.960;8.542;2023-03-23T07:30:22;20.47;;;19.37;;
2019;SDS011;1014;51.960;8.542;2023-03-23T07:32:49;19.50;;;18.50;;
2019;SDS011;1014;51.960;8.542;2023-03-23T07:35:16;19.70;;;18.43;;
2019;SDS011;1014;51.960;8.542;2023-03-23T07:37:43;18.40;;;17.50;;
2019;SDS011;1014;51.960;8.542;2023-03-23T07:40:13;18.70;;;17.73;;
2019;SDS011;1014;51.960;8.542;2023-03-23T07:42:43;19.57;;;18.47;;
2019;SDS011;1014;51.960;8.542;2023-03-23T07:45:10;19.30;;;18.30;;
2019;SDS011;1014;51.960;8.542;2023-03-23T07:47:37;19.43;;;18.50;;
2019;SDS011;1014;51.960;8.542;2023-03-23T07:50:05;19.70;;;18.67;;
2019;SDS011;1014;51.960;8.542;2023-03-23T07:52:32;19.03;;;18.03;;
2019;SDS011;1014;51.960;8.542;2023-03-23T07:54:59;18.40;;;17.60;;
2019;SDS011;1014;51.960;8.542;2023-03-23T07:57:27;19.23;;;18.13;;
2019;SDS011;1014;51.960;8.542;2023-03-23T07:59:56;19.87;;;18.77;;
2019;SDS011;1014;51.960;8.542;2023-03-23T08:02:24;20.80;;;19.60;;
2019;SDS011;1014;51.960;8.542;2023-03-23T08:04:51;20.10;;;18.90;;
2019;SDS011;1014;51.960;8.542;2023-03-23T08:07:21;19.03;;;17.83;;
2019;SDS011;1014;51.960;8.542;2023-03-23T08:09:48;18.80;;;17.80;;
2019;SDS011;1014;51.960;8.542;2023-03-23T08:12:15;19.83;;;18.37;;
2019;SDS011;1014;51.960;8.542;2023-03-23T08:14:42;21.20;;;19.90;;
2019;SDS011;1014;51.960;8.542;2023-03-23T08:17:11;20.10;;;18.90;;
2019;SDS011;1014;51.960;8.542;2023-03-23T08:19:38;19.20;;;18.20;;
2019;SDS011;1014;51.960;8.542;2023-03-23T08:22:05;19.07;;;18.00;;
2019;SDS011;1014;51.960;8.542;2023-03-23T08:24:33;20.23;;;18.73;;
2019;SDS011;1014;51.960;8.542;2023-03-23T08:27:00;19.73;;;18.63;;
2019;SDS011;1014;51.960;8.542;2023-03-23T08:29:27;18.97;;;18.07;;
2019;SDS011;1014;51.960;8.542;2023-03-23T08:31:54;20.47;;;19.10;;
2019;SDS011;1014;51.960;8.542;2023-03-23T08:34:22;19.80;;;18.60;;
2019;SDS011;1014;51.960;8.542;2023-03-23T08:36:50;18.73;;;17.63;;
2019;SDS011;1014;51.960;8.542;2023-03-23T08:39:18;18.70;;;17.60;;
2019;SDS011;1014;51.960;8.542;2023-03-23T08:41:45;19.13;;;18.17;;
2019;SDS011;1014;51.960;8.542;2023-03-23T08:44:12;20.27;;;19.07;;
2019;SDS011;1014;51.960;8.542;2023-03-23T08:46:39;18.50;;;17.60;;
2019;SDS011;1014;51.960;8.542;2023-03-23T08:49:06;21.03;;;19.63;;
2019;SDS011;1014;51.960;8.542;2023-03-23T08:51:34;19.83;;;18.73;;
2019;SDS011;1014;51.960;8.542;2023-03-23T08:54:02;20.37;;;19.17;;
2019;SDS011;1014;51.960;8.542;2023-03-23T08:56:29;19.70;;;18.60;;
2019;SDS011;1014;51.960;8.542;2023-03-23T08:58:56;20.77;;;19.47;;
2019;SDS011;1014;51.960;8.542;2023-03-23T09:01:23;21.53;;;20.23;;
2019;SDS011;1014;51.960;8.542;2023-03-23T09:03:51;20.83;;;19.70;;
2019;SDS011;1014;51.960;8.542;2023-03-23T09:06:19;20.77;;;19.60;;
2019;SDS011;1014;51.960;8.542;2023-03-23T09:08:47;20.40;;;19.13;;
2019;SDS011;1014;51.960;8.542;2023-03-23T09:11:15;19.83;;;18.67;;
2019;SDS011;1014;51.960;8.542;2023-03-23T09:13:42;20.93;;;19.33;;
2019;SDS011;1014;51.960;8.542;2023-03-23T09:16:09;21.07;;;19.80;;
2019;SDS011;1014;51.960;8.542;2023-03-23T09:18:36;21.30;;;19.73;;
2019;SDS011;1014;51.960;8.542;2023-03-23T09:21:03;21.27;;;19.93;;
2019;SDS011;1014;51.960;8.542;2023-03-23T09:23:30;21.13;;;19.60;;
2019;SDS011;1014;51.960;8.542;2023-03-23T09:26:01;21.43;;;20.20;;
2019;SDS011;1014;51.960;8.542;2023-03-23T09:28:28;20.83;;;19.63;;
2019;SDS011;1014;51.960;8.542;2023-03-23T09:30:56;19.43;;;18.33;;
2019;SDS011;1014;51.960;8.542;2023-03-23T09:33:24;20.80;;;19.80;;
2019;SDS011;1014;51.960;8.542;2023-03-23T09:35:51;22.03;;;20.40;;
2019;SDS011;1014;51.960;8.542;2023-03-23T09:38:18;21.57;;;20.37;;
2019;SDS011;1014;51.960;8.542;2023-03-23T09:40:47;20.70;;;19.50;;
2019;SDS011;1014;51.960;8.542;2023-03-23T09:43:24;20.07;;;18.97;;
2019;SDS011;1014;51.960;8.542;2023-03-23T09:45:56;20.87;;;19.87;;
2019;SDS011;1014;51.960;8.542;2023-03-23T09:48:34;21.70;;;20.30;;
2019;SDS011;1014;51.960;8.542;2023-03-23T09:51:04;21.07;;;19.73;;
2019;SDS011;1014;51.960;8.542;2023-03-23T09:53:36;20.97;;;19.67;;
2019;SDS011;1014;51.960;8.542;2023-03-23T09:56:08;21.47;;;20.37;;
2019;SDS011;1014;51.960;8.542;2023-03-23T09:58:39;20.87;;;19.67;;
2019;SDS011;1014;51.960;8.542;2023-03-23T10:01:10;21.27;;;20.17;;
2019;SDS011;1014;51.960;8.542;2023-03-23T10:03:41;22.10;;;20.70;;
2019;SDS011;1014;51.960;8.542;2023-03-23T10:06:09;19.80;;;18.73;;
2019;SDS011;1014;51.960;8.542;2023-03-23T10:08:37;20.73;;;19.60;;
2019;SDS011;1014;51.960;8.542;2023-03-23T10:11:14;20.93;;;19.80;;
2019;SDS011;1014;51.960;8.542;2023-03-23T10:13:50;20.37;;;18.97;;
2019;SDS011;1014;51.960;8.542;2023-03-23T10:16:19;21.67;;;20.17;;
2019;SDS011;1014;51.960;8.542;2023-03-23T10:18:47;22.73;;;21.07;;
2019;SDS011;1014;51.960;8.542;2023-03-23T10:21:17;20.37;;;19.20;;
2019;SDS011;1014;51.960;8.542;2023-03-23T10:23:49;21.50;;;20.20;;
2019;SDS011;1014;51.960;8.542;2023-03-23T10:26:21;22.60;;;21.30;;
2019;SDS011;1014;51.960;8.542;2023-03-23T10:28:54;21.83;;;20.33;;
2019;SDS011;1014;51.960;8.542;2023-03-23T10:31:22;21.60;;;20.30;;
2019;SDS011;1014;51.960;8.542;2023-03-23T10:33:50;20.57;;;19.47;;
2019;SDS011;1014;51.960;8.542;2023-03-23T10:36:19;21.30;;;19.87;;
2019;SDS011;1014;51.960;8.542;2023-03-23T10:38:49;21.10;;;19.40;;
2019;SDS011;1014;51.960;8.542;2023-03-23T10:41:19;19.47;;;18.47;;
2019;SDS011;1014;51.960;8.542;2023-03-23T10:43:47;21.13;;;19.83;;
2019;SDS011;1014;51.960;8.542;2023-03-23T10:46:20;19.80;;;18.70;;
2019;SDS011;1014;51.960;8.542;2023-03-23T10:48:48;19.80;;;18.53;;
2019;SDS011;1014;51.960;8.542;2023-03-23T10:51:16;19.43;;;18.23;;
2019;SDS011;1014;51.960;8.542;2023-03-23T10:53:46;20.40;;;19.10;;
2019;SDS011;1014;51.960;8.542;2023-03-23T10:56:20;21.53;;;20.00;;
2019;SDS011;1014;51.960;8.542;2023-03-23T10:58:48;19.57;;;18.37;;
2019;SDS011;1014;51.960;8.542;2023-03-23T11:01:17;20.20;;;18.80;;
2019;SDS011;1014;51.960;8.542;2023-03-23T11:03:46;21.40;;;20.20;;
2019;SDS011;1014;51.960;8.542;2023-03-23T11:06:19;20.53;;;19.20;;
2019;SDS011;1014;51.960;8.542;2023-03-23T11:08:47;19.63;;;18.33;;
2019;SDS011;1014;51.960;8.542;2023-03-23T11:11:16;18.17;;;17.33;;
2019;SDS011;1014;51.960;8.542;2023-03-23T11:13:44;18.83;;;17.93;;
2019;SDS011;1014;51.960;8.542;2023-03-23T11:16:21;21.30;;;20.30;;
2019;SDS011;1014;51.960;8.542;2023-03-23T11:18:50;21.50;;;20.30;;
2019;SDS011;1014;51.960;8.542;2023-03-23T11:21:19;21.70;;;20.60;;
2019;SDS011;1014;51.960;8.542;2023-03-23T11:23:48;22.70;;;21.50;;
2019;SDS011;1014;51.960;8.542;2023-03-23T11:26:16;21.67;;;20.47;;
2019;SDS011;1014;51.960;8.542;2023-03-23T11:28:45;26.47;;;25.17;;
2019;SDS011;1014;51.960;8.542;2023-03-23T11:31:14;32.50;;;30.27;;
2019;SDS011;1014;51.960;8.542;2023-03-23T11:33:47;63.77;;;57.50;;
2019;SDS011;1014;51.960;8.542;2023-03-23T11:36:16;27.00;;;25.60;;
2019;SDS011;1014;51.960;8.542;2023-03-23T11:38:43;30.23;;;28.53;;
2019;SDS011;1014;51.960;8.542;2023-03-23T11:41:11;30.70;;;29.10;;
2019;SDS011;1014;51.960;8.542;2023-03-23T11:43:43;27.40;;;26.10;;
2019;SDS011;1014;51.960;8.542;2023-03-23T11:46:13;27.67;;;26.10;;
2019;SDS011;1014;51.960;8.542;2023-03-23T11:48:43;26.10;;;24.47;;
2019;SDS011;1014;51.960;8.542;2023-03-23T11:51:12;25.27;;;23.90;;
2019;SDS011;1014;51.960;8.542;2023-03-23T11:53:45;23.97;;;22.87;;
2019;SDS011;1014;51.960;8.542;2023-03-23T11:56:15;24.93;;;23.73;;
2019;SDS011;1014;51.960;8.542;2023-03-23T11:58:44;22.63;;;21.53;;
2019;SDS011;1014;51.960;8.542;2023-03-23T12:01:13;22.37;;;21.37;;
2019;SDS011;1014;51.960;8.542;2023-03-23T12:03:51;21.43;;;20.27;;
2019;SDS011;1014;51.960;8.542;2023-03-23T12:06:20;20.73;;;19.67;;
2019;SDS011;1014;51.960;8.542;2023-03-23T12:08:56;19.03;;;18.10;;
2019;SDS011;1014;51.960;8.542;2023-03-23T12:11:27;19.80;;;18.70;;
2019;SDS011;1014;51.960;8.542;2023-03-23T12:14:03;19.20;;;18.30;;
2019;SDS011;1014;51.960;8.542;2023-03-23T12:16:38;20.30;;;19.30;;
2019;SDS011;1014;51.960;8.542;2023-03-23T12:19:10;19.63;;;18.37;;
2019;SDS011;1014;51.960;8.542;2023-03-23T12:21:43;18.77;;;17.87;;
2019;SDS011;1014;51.960;8.542;2023-03-23T12:24:15;18.43;;;17.53;;
2019;SDS011;1014;51.960;8.542;2023-03-23T12:26:45;18.27;;;17.43;;
2019;SDS011;1014;51.960;8.542;2023-03-23T12:29:18;18.87;;;17.90;;
2019;SDS011;1014;51.960;8.542;2023-03-23T12:31:53;21.07;;;19.50;;
2019;SDS011;1014;51.960;8.542;2023-03-23T12:34:25;20.10;;;18.77;;
2019;SDS011;1014;51.960;8.542;2023-03-23T12:36:57;20.90;;;19.60;;
2019;SDS011;1014;51.960;8.542;2023-03-23T12:42:11;21.33;;;20.10;;
2019;SDS011;1014;51.960;8.542;2023-03-23T12:44:39;20.93;;;19.63;;
2019;SDS011;1014;51.960;8.542;2023-03-23T12:47:15;20.37;;;19.27;;
2019;SDS011;1014;51.960;8.542;2023-03-23T12:49:46;19.90;;;18.80;;
2019;SDS011;1014;51.960;8.542;2023-03-23T12:52:16;19.60;;;18.63;;
2019;SDS011;1014;51.960;8.542;2023-03-23T12:54:48;19.87;;;18.77;;
2019;SDS011;1014;51.960;8.542;2023-03-23T12:57:22;20.10;;;19.10;;
2019;SDS011;1014;51.960;8.542;2023-03-23T12:59:53;19.13;;;18.13;;
2019;SDS011;1014;51.960;8.542;2023-03-23T13:02:24;20.17;;;19.07;;
2019;SDS011;1014;51.960;8.542;2023-03-23T13:04:59;19.63;;;18.63;;
2019;SDS011;1014;51.960;8.542;2023-03-23T13:07:28;22.80;;;20.97;;
2019;SDS011;1014;51.960;8.542;2023-03-23T13:09:58;22.10;;;20.90;;
2019;SDS011;1014;51.960;8.542;2023-03-23T13:12:30;24.07;;;22.77;;
2019;SDS011;1014;51.960;8.542;2023-03-23T13:15:00;24.80;;;23.47;;
2019;SDS011;1014;51.960;8.542;2023-03-23T13:17:34;24.70;;;23.60;;
2019;SDS011;1014;51.960;8.542;2023-03-23T13:20:13;29.40;;;28.00;;
2019;SDS011;1014;51.960;8.542;2023-03-23T13:22:45;30.03;;;28.73;;
2019;SDS011;1014;51.960;8.542;2023-03-23T13:25:17;34.30;;;32.70;;
2019;SDS011;1014;51.960;8.542;2023-03-23T13:27:56;32.83;;;30.97;;
2019;SDS011;1014;51.960;8.542;2023-03-23T13:30:24;32.30;;;30.90;;
2019;SDS011;1014;51.960;8.542;2023-03-23T13:33:00;31.70;;;30.20;;
2019;SDS011;1014;51.960;8.542;2023-03-23T13:35:32;32.80;;;31.40;;
2019;SDS011;1014;51.960;8.542;2023-03-23T13:38:00;33.17;;;31.67;;
2019;SDS011;1014;51.960;8.542;2023-03-23T13:40:28;32.40;;;31.00;;
2019;SDS011;1014;51.960;8.542;2023-03-23T13:42:59;37.57;;;35.67;;
2019;SDS011;1014;51.960;8.542;2023-03-23T13:45:35;36.83;;;35.13;;
2019;SDS011;1014;51.960;8.542;2023-03-23T13:48:03;33.83;;;32.33;;
2019;SDS011;1014;51.960;8.542;2023-03-23T13:50:42;35.27;;;33.63;;
2019;SDS011;1014;51.960;8.542;2023-03-23T13:53:13;37.00;;;35.20;;
2019;SDS011;1014;51.960;8.542;2023-03-23T13:55:40;36.57;;;34.60;;
2019;SDS011;1014;51.960;8.542;2023-03-23T13:58:20;37.97;;;36.07;;
2019;SDS011;1014;51.960;8.542;2023-03-23T14:00:49;36.70;;;35.00;;
2019;SDS011;1014;51.960;8.542;2023-03-23T14:03:18;36.93;;;35.03;;
2019;SDS011;1014;51.960;8.542;2023-03-23T14:05:48;38.03;;;36.23;;
2019;SDS011;1014;51.960;8.542;2023-03-23T14:08:21;37.57;;;35.67;;
2019;SDS011;1014;51.960;8.542;2023-03-23T14:10:50;37.87;;;36.07;;
2019;SDS011;1014;51.960;8.542;2023-03-23T14:13:21;37.63;;;35.80;;
2019;SDS011;1014;51.960;8.542;2023-03-23T14:15:54;37.67;;;35.83;;
2019;SDS011;1014;51.960;8.542;2023-03-23T14:18:23;36.90;;;35.20;;
2019;SDS011;1014;51.960;8.542;2023-03-23T14:20:52;33.40;;;31.90;;
2019;SDS011;1014;51.960;8.542;2023-03-23T14:23:19;31.83;;;30.33;;
2019;SDS011;1014;51.960;8.542;2023-03-23T14:25:54;32.10;;;30.60;;
2019;SDS011;1014;51.960;8.542;2023-03-23T14:28:22;31.37;;;29.87;;
2019;SDS011;1014;51.960;8.542;2023-03-23T14:30:52;33.07;;;31.37;;
2019;SDS011;1014;51.960;8.542;2023-03-23T14:33:19;30.87;;;29.47;;
2019;SDS011;1014;51.960;8.542;2023-03-23T14:35:47;31.40;;;29.80;;
2019;SDS011;1014;51.960;8.542;2023-03-23T14:38:15;31.40;;;29.40;;
2019;SDS011;1014;51.960;8.542;2023-03-23T14:40:43;30.03;;;28.53;;
2019;SDS011;1014;51.960;8.542;2023-03-23T14:43:10;30.77;;;29.27;;
2019;SDS011;1014;51.960;8.542;2023-03-23T14:45:40;32.20;;;30.20;;
2019;SDS011;1014;51.960;8.542;2023-03-23T14:48:09;31.53;;;30.03;;
2019;SDS011;1014;51.960;8.542;2023-03-23T14:50:38;30.20;;;28.80;;
2019;SDS011;1014;51.960;8.542;2023-03-23T14:53:09;32.30;;;30.60;;
2019;SDS011;1014;51.960;8.542;2023-03-23T14:55:37;32.17;;;30.20;;
2019;SDS011;1014;51.960;8.542;2023-03-23T14:58:08;29.07;;;27.57;;
2019;SDS011;1014;51.960;8.542;2023-03-23T15:00:38;29.40;;;27.80;;
2019;SDS011;1014;51.960;8.542;2023-03-23T15:03:09;28.90;;;27.37;;